createdAt,value
2022-10-15T00:01:32.104Z,19.70
2022-10-15T00:06:29.260Z,22.57
2022-10-15T00:08:56.868Z,21.63
2022-10-15T00:11:26.011Z,18.20
2022-10-15T00:13:57.223Z,17.93
2022-10-15T00:16:26.018Z,17.60
2022-10-15T00:18:55.845Z,18.50
2022-10-15T00:21:23.373Z,20.47
2022-10-15T00:23:51.112Z,21.10
2022-10-15T00:26:22.983Z,21.47
2022-10-15T00:28:51.056Z,19.07
2022-10-15T00:31:19.087Z,24.83
2022-10-15T00:33:46.647Z,28.00
2022-10-15T00:36:18.770Z,23.67
2022-10-15T00:38:47.138Z,22.70
2022-10-15T00:41:16.238Z,24.93
2022-10-15T00:43:46.745Z,20.20
2022-10-15T00:46:26.381Z,19.53
2022-10-15T00:48:56.353Z,20.67
2022-10-15T00:51:24.564Z,21.87
2022-10-15T00:53:52.089Z,20.33
2022-10-15T00:56:22.075Z,23.67
2022-10-15T00:58:51.213Z,25.60
2022-10-15T01:01:18.995Z,29.27
2022-10-15T01:03:46.829Z,22.77
2022-10-15T01:06:14.390Z,24.80
2022-10-15T01:08:41.945Z,26.53
2022-10-15T01:11:15.478Z,30.50
2022-10-15T01:14:08.090Z,28.37
2022-10-15T01:16:58.716Z,27.03
2022-10-15T01:19:52.440Z,22.83
2022-10-15T01:22:26.031Z,26.80
2022-10-15T01:24:53.489Z,26.17
2022-10-15T01:27:21.274Z,26.70
2022-10-15T01:29:59.218Z,25.50
2022-10-15T01:32:30.816Z,23.60
2022-10-15T01:35:01.417Z,26.93
2022-10-15T01:37:31.866Z,25.17
2022-10-15T01:40:05.943Z,23.77
2022-10-15T01:42:45.156Z,28.40
2022-10-15T01:45:16.944Z,24.20
2022-10-15T01:47:49.097Z,21.23
2022-10-15T01:50:17.518Z,20.37
2022-10-15T01:52:45.830Z,20.77
2022-10-15T01:55:14.770Z,19.33
2022-10-15T01:57:44.111Z,19.70
2022-10-15T02:00:15.069Z,17.03
2022-10-15T02:02:42.724Z,19.00
2022-10-15T02:05:18.262Z,19.00
2022-10-15T02:07:54.805Z,17.47
2022-10-15T02:10:22.272Z,18.60
2022-10-15T02:13:04.112Z,20.17
2022-10-15T02:15:34.677Z,18.40
2022-10-15T02:18:02.205Z,18.63
2022-10-15T02:20:32.965Z,17.57
2022-10-15T02:23:04.253Z,18.13
2022-10-15T02:25:33.878Z,19.93
2022-10-15T02:28:04.008Z,17.00
2022-10-15T02:30:32.056Z,16.87
2022-10-15T02:33:00.239Z,17.77
2022-10-15T02:35:28.047Z,19.00
2022-10-15T02:37:58.041Z,18.27
2022-10-15T02:40:28.283Z,20.40
2022-10-15T02:42:56.092Z,19.67
2022-10-15T02:45:23.752Z,18.70
2022-10-15T02:47:51.231Z,21.73
2022-10-15T02:50:18.681Z,20.30
2022-10-15T02:52:46.321Z,24.13
2022-10-15T02:55:13.753Z,17.80
2022-10-15T02:57:41.212Z,22.13
2022-10-15T03:00:09.116Z,19.37
2022-10-15T03:02:36.750Z,23.80
2022-10-15T03:05:04.593Z,21.50
2022-10-15T03:07:32.064Z,22.20
2022-10-15T03:09:59.980Z,23.73
2022-10-15T03:12:27.481Z,19.87
2022-10-15T03:14:55.050Z,22.30
2022-10-15T03:17:22.849Z,25.53
2022-10-15T03:19:50.560Z,24.37
2022-10-15T03:22:18.140Z,28.90
2022-10-15T03:24:45.610Z,24.90
2022-10-15T03:27:13.219Z,28.30
2022-10-15T03:29:40.690Z,24.87
2022-10-15T03:32:08.238Z,25.77
2022-10-15T03:34:36.910Z,21.30
2022-10-15T03:37:04.433Z,25.70
2022-10-15T03:39:31.899Z,26.43
2022-10-15T03:41:59.398Z,23.57
2022-10-15T03:44:26.979Z,26.47
2022-10-15T03:46:54.430Z,25.67
2022-10-15T03:49:21.959Z,29.13
2022-10-15T03:51:49.478Z,23.10
2022-10-15T03:54:17.010Z,27.40
2022-10-15T03:56:44.710Z,27.03
2022-10-15T03:59:12.180Z,28.17
2022-10-15T04:01:39.741Z,29.00
2022-10-15T04:04:07.220Z,23.37
2022-10-15T04:06:34.722Z,21.27
2022-10-15T04:09:02.299Z,24.90
2022-10-15T04:11:29.856Z,25.17
2022-10-15T04:13:57.339Z,28.20
2022-10-15T04:16:24.829Z,24.47
2022-10-15T04:18:53.219Z,22.77
2022-10-15T04:21:20.765Z,24.20
2022-10-15T04:23:48.193Z,26.27
2022-10-15T04:26:15.755Z,23.03
2022-10-15T04:28:43.211Z,25.83
2022-10-15T04:31:10.752Z,25.37
2022-10-15T04:33:38.223Z,25.50
2022-10-15T04:36:07.387Z,21.20
2022-10-15T04:38:35.300Z,24.33
2022-10-15T04:41:04.573Z,25.33
2022-10-15T04:43:32.249Z,25.20
2022-10-15T04:46:00.699Z,23.00
2022-10-15T04:48:28.819Z,24.07
2022-10-15T04:50:56.498Z,24.43
2022-10-15T04:53:23.965Z,24.13
2022-10-15T04:55:51.529Z,25.47
2022-10-15T04:58:19.001Z,26.10
2022-10-15T05:00:46.530Z,26.60
2022-10-15T05:03:14.018Z,28.93
2022-10-15T05:05:41.466Z,27.30
2022-10-15T05:08:09.073Z,27.10
2022-10-15T05:10:36.552Z,29.97
2022-10-15T05:13:04.083Z,32.63
2022-10-15T05:15:31.567Z,30.87
2022-10-15T05:17:59.048Z,31.50
2022-10-15T05:20:26.545Z,33.20
2022-10-15T05:22:53.977Z,30.17
2022-10-15T05:25:21.433Z,31.47
2022-10-15T05:27:48.925Z,35.47
2022-10-15T05:30:16.456Z,32.30
2022-10-15T05:32:46.006Z,37.93
2022-10-15T05:35:13.467Z,31.87
2022-10-15T05:37:40.939Z,30.17
2022-10-15T05:40:08.779Z,32.20
2022-10-15T05:42:36.229Z,30.27
2022-10-15T05:45:04.129Z,27.77
2022-10-15T05:47:31.577Z,26.63
2022-10-15T05:49:59.053Z,27.73
2022-10-15T05:52:26.855Z,28.87
2022-10-15T05:54:54.501Z,25.87
2022-10-15T05:57:22.533Z,31.13
2022-10-15T05:59:49.969Z,29.63
2022-10-15T06:02:17.536Z,25.37
2022-10-15T06:04:45.028Z,27.40
2022-10-15T06:07:12.440Z,28.43
2022-10-15T06:09:39.898Z,27.67
2022-10-15T06:12:07.408Z,31.67
2022-10-15T06:14:35.065Z,33.07
2022-10-15T06:17:02.486Z,30.27
2022-10-15T06:19:29.939Z,36.07
2022-10-15T06:21:57.609Z,35.27
2022-10-15T06:24:25.102Z,34.27
2022-10-15T06:26:52.820Z,41.40
2022-10-15T06:29:20.360Z,45.53
2022-10-15T06:31:47.845Z,42.43
2022-10-15T06:34:15.403Z,38.40
2022-10-15T06:36:42.844Z,37.90
2022-10-15T06:39:10.510Z,41.17
2022-10-15T06:41:38.137Z,38.17
2022-10-15T06:44:05.671Z,35.63
2022-10-15T06:46:33.178Z,35.50
2022-10-15T06:49:00.654Z,42.77
2022-10-15T06:51:28.096Z,37.70
2022-10-15T06:53:55.616Z,44.33
2022-10-15T06:56:23.074Z,43.73
2022-10-15T06:58:50.628Z,43.87
2022-10-15T07:01:18.128Z,44.97
2022-10-15T07:03:45.666Z,44.37
2022-10-15T07:06:13.113Z,43.67
2022-10-15T07:08:40.655Z,51.40
2022-10-15T07:11:08.597Z,43.07
2022-10-15T07:13:36.143Z,38.33
2022-10-15T07:16:07.406Z,41.87
2022-10-15T07:18:35.435Z,36.70
2022-10-15T07:21:03.494Z,37.53
2022-10-15T07:23:37.764Z,37.17
2022-10-15T07:26:05.633Z,41.43
2022-10-15T07:28:33.418Z,36.10
2022-10-15T07:31:01.977Z,38.53
2022-10-15T07:33:29.623Z,40.23
2022-10-15T07:35:57.193Z,31.40
2022-10-15T07:38:24.741Z,34.13
2022-10-15T07:40:52.270Z,32.47
2022-10-15T07:43:19.748Z,34.00
2022-10-15T07:45:50.403Z,34.43
2022-10-15T07:48:18.095Z,30.50
2022-10-15T07:50:45.574Z,32.50
2022-10-15T07:53:13.262Z,34.00
2022-10-15T07:55:40.781Z,28.37
2022-10-15T07:58:08.288Z,30.00
2022-10-15T08:00:35.818Z,30.23
2022-10-15T08:03:03.527Z,29.67
2022-10-15T08:05:30.994Z,30.63
2022-10-15T08:07:58.463Z,26.17
2022-10-15T08:10:25.890Z,24.83
2022-10-15T08:12:53.353Z,28.07
2022-10-15T08:15:20.813Z,29.43
2022-10-15T08:17:48.525Z,25.40
2022-10-15T08:20:16.347Z,23.90
2022-10-15T08:22:43.819Z,22.30
2022-10-15T08:25:11.317Z,20.23
2022-10-15T08:27:38.828Z,20.20
2022-10-15T08:30:06.509Z,21.67
2022-10-15T08:32:33.973Z,19.53
2022-10-15T08:35:01.393Z,19.57
2022-10-15T08:37:28.844Z,18.20
2022-10-15T08:39:56.488Z,17.67
2022-10-15T08:42:29.527Z,16.77
2022-10-15T08:44:59.025Z,13.87
2022-10-15T08:47:29.244Z,11.47
2022-10-15T08:50:00.340Z,11.67
2022-10-15T08:52:34.097Z,10.07
2022-10-15T08:55:02.330Z,9.73
2022-10-15T08:57:43.894Z,9.23
2022-10-15T09:00:31.601Z,7.63
2022-10-15T09:02:59.133Z,9.43
2022-10-15T09:05:49.635Z,6.83
2022-10-15T09:08:22.963Z,5.87
2022-10-15T09:10:52.967Z,6.27
2022-10-15T09:13:23.178Z,5.00
2022-10-15T09:15:57.069Z,4.37
2022-10-15T09:18:26.435Z,3.10
2022-10-15T09:20:54.411Z,4.13
2022-10-15T09:23:23.490Z,3.20
2022-10-15T09:25:55.997Z,2.23
2022-10-15T09:28:25.815Z,3.13
2022-10-15T09:30:56.419Z,2.80
2022-10-15T09:33:36.432Z,3.07
2022-10-15T09:36:30.484Z,4.23
2022-10-15T09:39:33.520Z,2.00
2022-10-15T09:42:04.093Z,2.63
2022-10-15T09:44:35.260Z,2.10
2022-10-15T09:47:02.830Z,2.17
2022-10-15T09:49:35.529Z,2.13
2022-10-15T09:52:09.262Z,1.87
2022-10-15T09:54:36.713Z,1.73
2022-10-15T09:57:04.416Z,3.17
2022-10-15T10:02:03.828Z,1.93
2022-10-15T10:04:33.023Z,1.43
2022-10-15T10:07:05.067Z,2.10
2022-10-15T10:09:51.316Z,2.47
2022-10-15T10:12:21.385Z,1.50
2022-10-15T10:14:56.430Z,2.77
2022-10-15T10:17:25.065Z,2.80
2022-10-15T10:20:11.241Z,1.60
2022-10-15T10:22:49.000Z,2.00
2022-10-15T10:25:27.816Z,3.87
2022-10-15T10:27:56.062Z,2.43
2022-10-15T10:30:23.973Z,2.97
2022-10-15T10:32:56.990Z,1.87
2022-10-15T10:35:25.415Z,1.87
2022-10-15T10:37:53.202Z,1.93
2022-10-15T10:40:26.595Z,3.43
2022-10-15T10:43:20.576Z,4.83
2022-10-15T10:46:02.098Z,2.07
2022-10-15T10:48:37.759Z,3.47
2022-10-15T10:51:19.376Z,4.20
2022-10-15T10:53:49.202Z,2.77
2022-10-15T10:56:18.660Z,2.40
2022-10-15T10:58:46.334Z,1.83
2022-10-15T11:01:14.378Z,1.60
2022-10-15T11:03:42.985Z,2.20
2022-10-15T11:06:10.453Z,2.70
2022-10-15T11:08:44.245Z,1.70
2022-10-15T11:11:32.486Z,1.87
2022-10-15T11:14:04.837Z,3.20
2022-10-15T11:16:45.779Z,2.27
2022-10-15T11:19:50.333Z,1.67
2022-10-15T11:25:07.197Z,3.90
2022-10-15T11:27:43.941Z,2.33
2022-10-15T11:30:28.913Z,2.83
2022-10-15T11:33:09.386Z,2.50
2022-10-15T11:35:52.483Z,1.90
2022-10-15T11:38:39.201Z,3.00
2022-10-15T11:41:12.684Z,4.80
2022-10-15T11:43:43.499Z,2.20
2022-10-15T11:46:26.027Z,1.60
2022-10-15T11:48:56.509Z,3.53
2022-10-15T11:51:33.035Z,3.87
2022-10-15T11:54:09.768Z,4.30
2022-10-15T11:56:39.378Z,1.90
2022-10-15T11:59:21.851Z,1.43
2022-10-15T12:01:51.932Z,2.53
2022-10-15T12:04:23.663Z,1.50
2022-10-15T12:06:53.624Z,2.70
2022-10-15T12:09:24.059Z,2.80
2022-10-15T12:11:56.934Z,1.80
2022-10-15T12:14:29.766Z,3.27
2022-10-15T12:17:26.389Z,5.13
2022-10-15T12:20:08.057Z,2.97
2022-10-15T12:22:53.925Z,1.20
2022-10-15T12:25:36.615Z,0.87
2022-10-15T12:28:24.005Z,1.40
2022-10-15T12:30:59.318Z,3.47
2022-10-15T12:33:32.092Z,1.10
2022-10-15T12:36:28.968Z,4.73
2022-10-15T12:38:59.161Z,1.00
2022-10-15T12:41:37.889Z,2.90
2022-10-15T12:44:15.233Z,0.60
2022-10-15T12:46:43.071Z,1.33
2022-10-15T12:49:31.598Z,1.87
2022-10-15T12:52:02.461Z,1.23
2022-10-15T12:54:43.346Z,0.63
2022-10-15T12:57:47.101Z,2.20
2022-10-15T13:00:26.677Z,0.90
2022-10-15T13:02:55.230Z,0.80
2022-10-15T13:05:32.905Z,1.37
2022-10-15T13:08:03.422Z,0.70
2022-10-15T13:10:36.047Z,1.40
2022-10-15T13:13:05.167Z,0.77
2022-10-15T13:15:33.294Z,2.20
2022-10-15T13:18:06.419Z,0.73
2022-10-15T13:20:34.027Z,2.07
2022-10-15T13:23:30.046Z,1.50
2022-10-15T13:26:27.760Z,0.77
2022-10-15T13:28:58.058Z,2.37
2022-10-15T13:31:30.105Z,0.70
2022-10-15T13:34:00.653Z,4.63
2022-10-15T13:36:37.281Z,1.00
2022-10-15T13:39:06.841Z,1.00
2022-10-15T13:41:35.764Z,1.27
2022-10-15T13:44:03.385Z,1.47
2022-10-15T13:46:32.730Z,0.83
2022-10-15T13:49:01.615Z,2.23
2022-10-15T13:51:38.466Z,0.93
2022-10-15T13:54:09.000Z,0.80
2022-10-15T13:56:36.760Z,0.70
2022-10-15T13:59:04.826Z,0.83
2022-10-15T14:01:33.098Z,0.90
2022-10-15T14:04:01.709Z,1.00
2022-10-15T14:06:31.555Z,1.17
2022-10-15T14:09:00.796Z,0.50
2022-10-15T14:11:29.526Z,0.70
2022-10-15T14:13:57.925Z,1.00
2022-10-15T14:16:28.669Z,1.37
2022-10-15T14:18:59.099Z,2.33
2022-10-15T14:21:27.370Z,2.70
2022-10-15T14:24:04.150Z,1.33
2022-10-15T14:26:32.139Z,0.97
2022-10-15T14:29:00.247Z,3.20
2022-10-15T14:31:32.978Z,1.93
2022-10-15T14:34:00.597Z,2.07
2022-10-15T14:36:32.319Z,2.53
2022-10-15T14:39:18.723Z,1.57
2022-10-15T14:42:00.049Z,3.87
2022-10-15T14:44:27.692Z,2.37
2022-10-15T14:47:02.098Z,3.77
2022-10-15T14:49:31.376Z,2.10
2022-10-15T14:52:09.230Z,2.80
2022-10-15T14:54:38.772Z,2.73
2022-10-15T14:57:12.557Z,5.30
2022-10-15T14:59:40.015Z,1.63
2022-10-15T15:02:11.384Z,1.90
2022-10-15T15:04:40.216Z,2.17
2022-10-15T15:07:12.547Z,1.63
2022-10-15T15:09:40.094Z,1.20
2022-10-15T15:12:07.616Z,1.37
2022-10-15T15:14:35.159Z,1.40
2022-10-15T15:17:02.620Z,1.37
2022-10-15T15:19:30.146Z,1.37
2022-10-15T15:21:57.597Z,1.70
2022-10-15T15:24:25.085Z,2.80
2022-10-15T15:26:52.590Z,1.90
2022-10-15T15:29:20.322Z,3.27
2022-10-15T15:31:48.484Z,2.20
2022-10-15T15:34:15.950Z,1.90
2022-10-15T15:36:43.368Z,2.80
2022-10-15T15:39:10.993Z,1.63
2022-10-15T15:41:38.710Z,1.87
2022-10-15T15:44:06.271Z,1.63
2022-10-15T15:46:33.938Z,1.90
2022-10-15T15:49:01.441Z,2.10
2022-10-15T15:51:30.463Z,3.87
2022-10-15T15:53:58.527Z,1.97
2022-10-15T15:56:26.423Z,2.87
2022-10-15T15:58:53.921Z,5.50
2022-10-15T16:01:21.527Z,3.07
2022-10-15T16:03:49.122Z,3.20
2022-10-15T16:06:16.597Z,2.23
2022-10-15T16:08:44.231Z,2.33
2022-10-15T16:11:11.723Z,2.50
2022-10-15T16:13:39.435Z,2.20
2022-10-15T16:16:06.983Z,3.37
2022-10-15T16:18:34.537Z,2.57
2022-10-15T16:21:01.964Z,2.20
2022-10-15T16:23:29.505Z,2.30
2022-10-15T16:25:56.979Z,3.50
2022-10-15T16:28:24.671Z,3.20
2022-10-15T16:30:52.460Z,2.53
2022-10-15T16:33:19.960Z,2.20
2022-10-15T16:35:52.460Z,3.40
2022-10-15T16:38:21.967Z,2.90
2022-10-15T16:40:49.490Z,2.30
2022-10-15T16:43:17.026Z,2.70
2022-10-15T16:45:44.466Z,2.40
2022-10-15T16:48:12.026Z,2.90
2022-10-15T16:50:39.475Z,3.60
2022-10-15T16:53:07.114Z,3.10
2022-10-15T16:55:34.641Z,8.00
2022-10-15T16:58:02.362Z,3.40
2022-10-15T17:00:30.029Z,2.97
2022-10-15T17:02:58.480Z,4.67
2022-10-15T17:05:26.087Z,5.23
2022-10-15T17:07:53.832Z,4.20
2022-10-15T17:10:21.397Z,3.63
2022-10-15T17:12:48.885Z,4.60
2022-10-15T17:15:16.480Z,4.10
2022-10-15T17:17:43.946Z,3.30
2022-10-15T17:20:11.904Z,6.87
2022-10-15T17:22:39.458Z,4.03
2022-10-15T17:25:07.275Z,4.27
2022-10-15T17:27:35.164Z,3.23
2022-10-15T17:30:02.827Z,4.43
2022-10-15T17:32:30.770Z,3.07
2022-10-15T17:35:03.826Z,3.90
2022-10-15T17:37:32.253Z,5.20
2022-10-15T17:43:39.916Z,5.63
2022-10-15T17:46:09.068Z,7.30
2022-10-15T17:48:36.646Z,4.10
2022-10-15T17:51:04.726Z,3.67
2022-10-15T17:53:32.449Z,5.30
2022-10-15T17:56:00.622Z,3.80
2022-10-15T17:58:28.100Z,6.17
2022-10-15T18:00:57.025Z,4.47
2022-10-15T18:03:25.655Z,5.87
2022-10-15T18:05:53.282Z,4.90
2022-10-15T18:08:21.068Z,4.00
2022-10-15T18:10:52.771Z,4.17
2022-10-15T18:13:27.571Z,9.70
2022-10-15T18:15:56.248Z,4.10
2022-10-15T18:18:24.315Z,6.07
2022-10-15T18:20:52.452Z,4.77
2022-10-15T18:23:23.044Z,4.90
2022-10-15T18:26:01.719Z,3.87
2022-10-15T18:28:29.354Z,5.03
2022-10-15T18:30:56.877Z,4.10
2022-10-15T18:33:24.769Z,4.33
2022-10-15T18:35:54.967Z,4.20
2022-10-15T18:38:24.967Z,5.50
2022-10-15T18:40:52.578Z,7.83
2022-10-15T18:43:20.125Z,8.10
2022-10-15T18:45:50.422Z,4.30
2022-10-15T18:48:19.616Z,6.07
2022-10-15T18:50:53.007Z,3.50
2022-10-15T18:53:23.603Z,6.37
2022-10-15T18:55:51.170Z,5.73
2022-10-15T18:58:21.289Z,5.53
2022-10-15T19:00:48.882Z,4.47
2022-10-15T19:03:16.718Z,3.87
2022-10-15T19:05:44.217Z,7.70
2022-10-15T19:08:11.797Z,5.13
2022-10-15T19:10:39.489Z,4.30
2022-10-15T19:13:07.277Z,4.30
2022-10-15T19:15:38.225Z,4.83
2022-10-15T19:18:06.023Z,3.60
2022-10-15T19:20:33.626Z,3.03
2022-10-15T19:23:02.320Z,6.20
2022-10-15T19:25:29.897Z,4.07
2022-10-15T19:27:59.449Z,4.97
2022-10-15T19:30:27.123Z,4.70
2022-10-15T19:32:54.841Z,5.60
2022-10-15T19:35:22.303Z,4.70
2022-10-15T19:37:49.883Z,4.83
2022-10-15T19:40:22.146Z,4.33
2022-10-15T19:42:50.906Z,4.47
2022-10-15T19:45:18.897Z,4.70
2022-10-15T19:47:47.868Z,7.83
2022-10-15T19:50:15.616Z,5.53
2022-10-15T19:52:43.384Z,6.97
2022-10-15T19:55:10.867Z,6.47
2022-10-15T19:57:40.643Z,6.10
2022-10-15T20:00:09.150Z,4.47
2022-10-15T20:02:36.653Z,5.53
2022-10-15T20:05:04.600Z,4.13
2022-10-15T20:07:32.812Z,4.90
2022-10-15T20:10:00.516Z,7.83
2022-10-15T20:12:28.443Z,5.43
2022-10-15T20:14:57.260Z,5.27
2022-10-15T20:17:25.620Z,7.47
2022-10-15T20:19:53.470Z,6.57
2022-10-15T20:22:21.091Z,3.77
2022-10-15T20:24:50.612Z,6.73
2022-10-15T20:27:18.310Z,5.57
2022-10-15T20:29:46.616Z,7.90
2022-10-15T20:32:30.427Z,7.47
2022-10-15T20:35:02.776Z,8.73
2022-10-15T20:37:30.596Z,8.03
2022-10-15T20:39:58.436Z,7.17
2022-10-15T20:42:27.129Z,10.27
2022-10-15T20:44:55.068Z,11.50
2022-10-15T20:47:23.864Z,4.93
2022-10-15T20:49:53.239Z,8.93
2022-10-15T20:52:22.260Z,7.40
2022-10-15T20:54:52.523Z,8.00
2022-10-15T20:57:20.047Z,8.53
2022-10-15T20:59:47.620Z,10.47
2022-10-15T21:02:15.660Z,7.23
2022-10-15T21:04:43.576Z,10.47
2022-10-15T21:07:11.383Z,6.13
2022-10-15T21:09:39.208Z,12.67
2022-10-15T21:12:07.251Z,12.53
2022-10-15T21:14:35.062Z,6.27
2022-10-15T21:17:04.948Z,9.50
2022-10-15T21:19:32.763Z,8.10
2022-10-15T21:22:00.308Z,7.83
2022-10-15T21:24:27.942Z,9.00
2022-10-15T21:26:55.542Z,8.10
2022-10-15T21:29:24.068Z,11.73
2022-10-15T21:31:52.054Z,7.93
2022-10-15T21:34:19.785Z,10.20
2022-10-15T21:36:47.374Z,7.57
2022-10-15T21:39:15.111Z,7.93
2022-10-15T21:41:42.724Z,9.70
2022-10-15T21:44:10.534Z,7.27
2022-10-15T21:46:40.484Z,12.83
2022-10-15T21:49:08.123Z,9.10
2022-10-15T21:51:36.470Z,11.27
2022-10-15T21:54:05.488Z,7.23
2022-10-15T21:56:33.032Z,11.73
2022-10-15T21:59:00.553Z,11.63
2022-10-15T22:01:34.912Z,8.00
2022-10-15T22:04:04.972Z,6.50
2022-10-15T22:06:33.147Z,6.20
2022-10-15T22:09:00.704Z,6.03
2022-10-15T22:11:29.569Z,9.20
2022-10-15T22:13:58.249Z,9.53
2022-10-15T22:16:26.567Z,8.73
2022-10-15T22:18:54.137Z,8.97
2022-10-15T22:21:23.514Z,4.93
2022-10-15T22:23:55.447Z,11.53
2022-10-15T22:26:24.784Z,6.40
2022-10-15T22:28:56.136Z,6.63
2022-10-15T22:31:23.735Z,8.57
2022-10-15T22:33:51.569Z,9.73
2022-10-15T22:36:23.137Z,9.20
2022-10-15T22:41:21.381Z,6.17
2022-10-15T22:43:49.088Z,8.90
2022-10-15T22:46:16.582Z,9.57
2022-10-15T22:48:44.041Z,7.27
2022-10-15T22:51:12.772Z,7.60
2022-10-15T22:53:40.799Z,12.80
2022-10-15T22:56:09.843Z,10.57
2022-10-15T22:58:37.339Z,7.87
2022-10-15T23:01:13.936Z,8.30
2022-10-15T23:03:42.378Z,7.67
2022-10-15T23:06:10.019Z,10.27
2022-10-15T23:08:37.939Z,6.40
2022-10-15T23:11:15.981Z,4.87
2022-10-15T23:13:44.721Z,10.00
2022-10-15T23:16:17.265Z,7.40
2022-10-15T23:18:45.585Z,12.80
2022-10-15T23:21:15.011Z,7.83
2022-10-15T23:23:43.729Z,9.90
2022-10-15T23:26:12.511Z,8.90
2022-10-15T23:28:40.458Z,8.10
2022-10-15T23:31:08.423Z,6.73
2022-10-15T23:33:37.079Z,8.77
2022-10-15T23:36:05.401Z,6.63
2022-10-15T23:38:33.079Z,7.80
2022-10-15T23:41:04.908Z,6.83
2022-10-15T23:43:32.622Z,6.57
2022-10-15T23:46:00.613Z,10.37
2022-10-15T23:48:28.700Z,6.50
2022-10-15T23:51:00.827Z,10.03
2022-10-15T23:53:32.144Z,8.40
2022-10-15T23:56:01.652Z,11.37
2022-10-15T23:58:29.229Z,11.93
